• Join FlightAware (Why Join?)
  • Login
  • US Flag 
12:11AM EDT


 

Airport Tracker/Info


-or-


 

Live Flight TrackerFlight Track Log ✈ FLG3862 ✈ 26-Apr-2013 ✈ KDTW - KBTV

Flight Track Log - Related Links

Times and Time Zones

All times are in EDT time to prevent confusion due to time zone crossing. See the FLG3862 flight status page for this flight to view local times or setup timezone preferences in your user account.

Time Position Orientation Groundspeed Altitude Reporting Facility
EDT Latitude Longitude Course Direction KTS MPH feet Rate Location/Type
10:48AM 42.2081 -83.3528 82° East 159 183 1,200  Level Cleveland Center
10:49AM 42.1539 -83.3478 176° South 196 226 4,000 2,280 Climbing Cleveland Center
10:50AM 42.0919 -83.3197 161° South 273 314 6,200 2,340 Climbing Cleveland Center
10:51AM 42.2865 -82.9006 75° East  Level FlightAware Approximate
10:51AM 42.0650 -83.2208 110° East 301 346 8,800  Level Cleveland Center
10:52AM 42.3165 -82.7510 75° East  Level FlightAware Approximate
10:52AM 42.1050 -83.1106 64° Northeast 300 345 10,100  Level Cleveland Center
10:53AM 42.3319 -82.5974 82° East  Level FlightAware Approximate
10:53AM 42.1492 -83.0000 62° Northeast 314 361 11,600  Level Cleveland Center
10:54AM 42.1953 -82.8814 62° Northeast 333 383 13,000 660 Climbing Cleveland Center
10:55AM 42.2456 -82.7625 60° Northeast 345 397 13,000 480 Level Cleveland Center
10:56AM 42.2917 -82.6406 63° Northeast 350 403 14,000 1,320 Climbing Cleveland Center
10:57AM 42.3417 -82.5186 61° Northeast 355 409 15,700 1,680 Climbing Cleveland Center
10:58AM 42.3669 -82.3817 76° East 365 420 17,400 1,440 Climbing Cleveland Center
10:59AM 42.3567 -82.2297 95° East 384 442 18,600 1,260 Climbing Cleveland Center
11:00AM 42.3544 -82.0919 91° East 393 452 20,000 1,200 Climbing Cleveland Center
11:01AM 42.3439 -81.9317 95° East 416 479 21,100 1,080 Climbing Cleveland Center
11:02AM 42.3375 -81.7544 93° East 427 491 22,200 1,020 Climbing Cleveland Center
11:03AM 42.3308 -81.5886 93° East 432 497 23,200 960 Climbing Cleveland Center
11:04AM 42.3239 -81.4200 93° East 441 507 24,200 900 Climbing Cleveland Center
11:05AM 42.3144 -81.2542 94° East 448 516 25,100 900 Climbing Cleveland Center
11:06AM 42.3069 -81.0831 93° East 453 521 26,000 900 Climbing Cleveland Center
11:07AM 42.2972 -80.9089 94° East 458 527 26,900 480 Climbing Cleveland Center
11:08AM 42.2872 -80.7319 94° East 464 534 27,000  Climbing Cleveland Center
11:09AM 42.3122 -80.5775 78° East 469 540 27,000  Level Cleveland Center
11:10AM 42.3664 -80.4117 66° East 469 540 27,000  Level Cleveland Center
11:11AM 42.4222 -80.2456 65° Northeast 476 548 27,000  Level Cleveland Center
11:12AM 42.4758 -80.0850 66° East 481 554 27,000  Level Cleveland Center
11:13AM 42.5353 -79.9153 65° Northeast 481 554 27,000  Level Cleveland Center
11:14AM 42.5886 -79.7514 66° East 481 554 27,000  Level Cleveland Center
11:15AM 42.6414 -79.5842 67° East 481 554 27,000  Level Cleveland Center
11:16AM 42.6919 -79.4194 67° East 481 554 27,000  Level Cleveland Center
11:17AM 42.7444 -79.2517 67° East 481 554 27,000  Level Cleveland Center
11:18AM 42.7944 -79.0864 68° East 481 554 27,000  Level Cleveland Center
11:19AM 42.8464 -78.9211 67° East 481 554 27,000  Level Cleveland Center
11:20AM 42.8981 -78.7553 67° East 481 554 27,000  Level Cleveland Center
11:21AM 42.9494 -78.5864 67° East 481 554 27,000  Level Cleveland Center
11:22AM 43.0028 -78.4172 67° East 481 554 27,000  Level Cleveland Center
11:23AM 43.0517 -78.2536 68° East 481 554 27,000  Level Cleveland Center
11:24AM 43.1044 -78.0867 67° East 481 554 27,000  Level Cleveland Center
11:25AM 43.1547 -77.9194 68° East 481 554 27,000 -60 Level Cleveland Center
11:26AM 43.2050 -77.7492 68° East 481 554 26,900  Descending Cleveland Center
11:27AM 43.2550 -77.5844 67° East 481 554 27,000  Climbing Cleveland Center
11:28AM 43.3047 -77.4167 68° East 476 548 27,000  Level Cleveland Center
11:29AM 43.3564 -77.2483 67° East 476 548 27,000  Level Cleveland Center
11:30AM 43.4056 -77.0797 68° East 476 548 27,000  Level Cleveland Center
11:31AM 43.4356 -76.9786 68° East 475 547 27,000  Level Boston Center
11:32AM 43.4839 -76.8103 68° East 480 552 27,000  Level Boston Center
11:33AM 43.5314 -76.6561 67° East 475 547 27,000  Level Boston Center
11:34AM 43.5792 -76.4875 69° East 480 552 27,000  Level Boston Center
11:35AM 43.6289 -76.3186 68° East 475 547 27,000  Level Boston Center
11:36AM 43.6858 -76.1125 69° East 475 547 27,000  Level Boston Center
11:37AM 43.7347 -75.9461 68° East 469 540 27,000  Level Boston Center
11:38AM 43.7814 -75.7761 69° East 469 540 27,000  Level Boston Center
11:39AM 43.8258 -75.6058 70° East 469 540 27,000  Level Boston Center
11:40AM 43.8789 -75.4186 68° East 469 540 27,000  Level Boston Center
11:41AM 43.9225 -75.2622 69° East 438 504 27,000 -900 Level Boston Center
11:42AM 43.9728 -75.0769 69° East 449 517 25,300 -1,800 Descending Boston Center
11:43AM 44.0161 -74.9086 70° East 455 524 23,400 -1,920 Descending Boston Center
11:44AM 44.0589 -74.7483 70° East 455 524 21,500 -1,800 Descending Boston Center
11:45AM 44.0994 -74.5967 70° East 435 501 19,900 -1,260 Descending Boston Center
11:46AM 44.1375 -74.4478 70° East 415 478 19,000 -480 Descending Boston Center
11:47AM 44.1756 -74.3014 70° East 404 465 19,000 -420 Level Boston Center
11:48AM 44.2131 -74.1578 70° East 398 458 18,200 -1,260 Descending Boston Center
11:49AM 44.2503 -74.0256 69° East 384 442 16,500 -1,800 Descending Boston Center
11:50AM 44.2856 -73.8842 71° East 379 436 14,700 -1,800 Descending Boston Center
11:51AM 44.3206 -73.7575 69° East 368 423 13,000 -1,440 Descending Boston Center
11:52AM 44.3444 -73.6564 72° East 331 381 11,900 -1,500 Descending Boston Center
11:53AM 44.3686 -73.5408 74° East 284 327 10,000 -1,800 Descending Boston Center
11:54AM 44.3653 -73.4333 92° East 274 315 8,300 -1,740 Descending Boston Center
11:55AM 44.3600 -73.3286 94° East 274 315 6,600 -1,680 Descending Boston Center
11:56AM 44.3567 -73.2297 93° East 269 310 5,000 -1,440 Descending Boston Center
11:57AM 44.3572 -73.1397 89° East 254 292 3,800 -1,200 Descending Boston Center